createdAt,value
2018-07-03T00:00:13.966Z,41.10
2018-07-03T00:02:42.273Z,41.10
2018-07-03T00:05:10.588Z,41.10
2018-07-03T00:07:38.846Z,41.10
2018-07-03T00:10:09.420Z,41.20
2018-07-03T00:12:37.785Z,41.10
2018-07-03T00:15:06.652Z,41.20
2018-07-03T00:17:35.024Z,41.20
2018-07-03T00:20:03.412Z,41.20
2018-07-03T00:22:31.678Z,41.30
2018-07-03T00:24:59.951Z,41.40
2018-07-03T00:27:28.225Z,41.30
2018-07-03T00:29:56.492Z,41.40
2018-07-03T00:32:24.792Z,41.40
2018-07-03T00:34:53.067Z,41.40
2018-07-03T00:37:21.380Z,41.50
2018-07-03T00:39:49.717Z,41.50
2018-07-03T00:42:18.005Z,41.50
2018-07-03T00:44:46.322Z,41.50
2018-07-03T00:47:14.606Z,41.50
2018-07-03T00:49:43.278Z,41.60
2018-07-03T00:52:11.598Z,41.60
2018-07-03T00:54:39.943Z,41.70
2018-07-03T00:57:08.184Z,41.70
2018-07-03T00:59:46.577Z,41.70
2018-07-03T01:02:14.872Z,41.70
2018-07-03T01:04:43.174Z,41.80
2018-07-03T01:07:11.447Z,41.90
2018-07-03T01:09:39.750Z,41.80
2018-07-03T01:12:08.023Z,41.90
2018-07-03T01:14:36.312Z,42.00
2018-07-03T01:17:04.632Z,42.00
2018-07-03T01:19:32.864Z,42.00
2018-07-03T01:22:01.160Z,42.10
2018-07-03T01:24:29.410Z,42.10
2018-07-03T01:26:57.663Z,42.10
2018-07-03T01:29:25.975Z,42.10
2018-07-03T01:31:54.241Z,42.20
2018-07-03T01:34:22.528Z,42.20
2018-07-03T01:36:50.846Z,42.30
2018-07-03T01:39:19.113Z,42.40
2018-07-03T01:41:47.357Z,42.40
2018-07-03T01:44:15.703Z,42.40
2018-07-03T01:46:43.979Z,42.40
2018-07-03T01:49:12.239Z,42.50
2018-07-03T01:51:40.492Z,42.50
2018-07-03T01:54:08.816Z,42.50
2018-07-03T01:56:37.095Z,42.50
2018-07-03T01:59:05.384Z,42.60
2018-07-03T02:01:33.635Z,42.70
2018-07-03T02:04:01.939Z,42.70
2018-07-03T02:06:30.224Z,42.70
2018-07-03T02:08:58.508Z,42.70
2018-07-03T02:11:27.057Z,42.80
2018-07-03T02:13:55.329Z,42.80
2018-07-03T02:16:23.605Z,42.80
2018-07-03T02:18:51.944Z,42.90
2018-07-03T02:21:20.196Z,42.90
2018-07-03T02:23:48.501Z,42.90
2018-07-03T02:26:16.855Z,42.90
2018-07-03T02:28:45.149Z,43.00
2018-07-03T02:31:13.428Z,43.10
2018-07-03T02:33:41.704Z,43.10
2018-07-03T02:36:10.042Z,43.10
2018-07-03T02:38:38.329Z,43.20
2018-07-03T02:41:07.241Z,43.90
2018-07-03T02:43:36.560Z,43.20
2018-07-03T02:46:05.349Z,43.20
2018-07-03T02:48:33.598Z,43.30
2018-07-03T02:51:01.880Z,43.30
2018-07-03T02:53:30.195Z,43.40
2018-07-03T02:55:58.533Z,43.40
2018-07-03T02:58:26.869Z,43.40
2018-07-03T03:00:55.201Z,43.40
2018-07-03T03:03:23.525Z,43.50
2018-07-03T03:05:51.841Z,43.50
2018-07-03T03:08:20.178Z,43.50
2018-07-03T03:10:48.455Z,43.50
2018-07-03T03:13:16.718Z,43.50
2018-07-03T03:18:12.941Z,43.70
2018-07-03T03:20:41.252Z,43.60
2018-07-03T03:23:09.647Z,43.70
2018-07-03T03:25:37.967Z,43.70
2018-07-03T03:28:06.305Z,43.80
2018-07-03T03:30:34.955Z,43.80
2018-07-03T03:33:04.111Z,43.80
2018-07-03T03:35:32.597Z,43.80
2018-07-03T03:38:01.294Z,43.90
2018-07-03T03:40:29.769Z,44.00
2018-07-03T03:42:58.050Z,44.00
2018-07-03T03:45:26.503Z,44.00
2018-07-03T03:47:54.789Z,44.00
2018-07-03T03:50:23.051Z,44.10
2018-07-03T03:52:51.329Z,44.10
2018-07-03T03:55:19.668Z,44.10
2018-07-03T03:57:47.909Z,44.10
2018-07-03T04:00:16.185Z,44.10
2018-07-03T04:02:44.455Z,44.20
2018-07-03T04:05:13.692Z,44.20
2018-07-03T04:07:41.977Z,44.20
2018-07-03T04:10:10.236Z,44.20
2018-07-03T04:12:38.549Z,44.20
2018-07-03T04:15:06.855Z,44.20
2018-07-03T04:17:36.465Z,44.30
2018-07-03T04:20:06.053Z,44.30
2018-07-03T04:22:35.781Z,44.30
2018-07-03T04:25:04.094Z,44.30
2018-07-03T04:27:32.379Z,44.30
2018-07-03T04:30:00.676Z,44.50
2018-07-03T04:32:28.900Z,44.50
2018-07-03T04:34:57.197Z,44.50
2018-07-03T04:37:26.795Z,44.50
2018-07-03T04:39:55.192Z,44.50
2018-07-03T04:42:23.428Z,44.60
2018-07-03T04:44:51.781Z,45.20
2018-07-03T04:47:20.062Z,44.50
2018-07-03T04:49:48.344Z,44.50
2018-07-03T04:52:16.684Z,44.50
2018-07-03T04:54:44.989Z,44.40
2018-07-03T04:57:13.263Z,44.30
2018-07-03T04:59:41.536Z,44.20
2018-07-03T05:02:09.818Z,44.20
2018-07-03T05:04:38.096Z,44.20
2018-07-03T05:07:06.375Z,44.10
2018-07-03T05:09:34.632Z,44.20
2018-07-03T05:12:02.915Z,44.20
2018-07-03T05:14:31.225Z,44.10
2018-07-03T05:16:59.850Z,44.20
2018-07-03T05:19:29.917Z,44.30
2018-07-03T05:21:58.458Z,44.20
2018-07-03T05:24:26.733Z,44.20
2018-07-03T05:26:55.866Z,44.20
2018-07-03T05:29:24.277Z,44.10
2018-07-03T05:31:52.609Z,44.10
2018-07-03T05:34:20.886Z,44.10
2018-07-03T05:36:49.150Z,44.10
2018-07-03T05:39:17.411Z,44.10
2018-07-03T05:41:45.734Z,44.10
2018-07-03T05:44:14.009Z,44.10
2018-07-03T05:46:42.287Z,44.10
2018-07-03T05:49:10.539Z,44.10
2018-07-03T05:51:38.826Z,44.10
2018-07-03T05:54:07.104Z,44.10
2018-07-03T05:56:35.512Z,44.00
2018-07-03T05:59:03.751Z,44.10
2018-07-03T06:01:32.097Z,44.70
2018-07-03T06:04:00.351Z,45.20
2018-07-03T06:06:28.629Z,45.60
2018-07-03T06:08:56.889Z,45.60
2018-07-03T06:11:25.270Z,45.50
2018-07-03T06:13:54.232Z,45.20
2018-07-03T06:16:22.710Z,45.20
2018-07-03T06:18:51.214Z,45.20
2018-07-03T06:21:19.516Z,45.10
2018-07-03T06:23:47.893Z,45.00
2018-07-03T06:26:16.169Z,45.40
2018-07-03T06:31:12.648Z,44.90
2018-07-03T06:33:40.986Z,44.70
2018-07-03T06:36:09.263Z,46.00
2018-07-03T06:38:37.552Z,45.60
2018-07-03T06:41:05.829Z,45.10
2018-07-03T06:43:34.137Z,45.00
2018-07-03T06:46:02.400Z,44.70
2018-07-03T06:48:30.710Z,44.70
2018-07-03T06:50:59.127Z,44.60
2018-07-03T06:53:27.406Z,44.80
2018-07-03T06:55:55.824Z,44.90
2018-07-03T06:58:24.258Z,45.00
2018-07-03T07:00:52.506Z,44.70
2018-07-03T07:05:48.920Z,44.90
2018-07-03T07:08:17.188Z,44.60
2018-07-03T07:10:45.488Z,44.80
2018-07-03T07:13:13.988Z,44.40
2018-07-03T07:15:43.032Z,44.40
2018-07-03T07:18:11.513Z,44.60
2018-07-03T07:20:39.854Z,44.40
2018-07-03T07:23:08.341Z,44.40
2018-07-03T07:25:36.790Z,44.30
2018-07-03T07:28:05.193Z,44.20
2018-07-03T07:30:33.664Z,44.20
2018-07-03T07:33:02.014Z,44.30
2018-07-03T07:35:30.461Z,44.10
2018-07-03T07:37:58.755Z,44.10
2018-07-03T07:40:27.324Z,44.10
2018-07-03T07:42:55.639Z,44.30
2018-07-03T07:45:23.946Z,44.00
2018-07-03T07:47:52.451Z,44.10
2018-07-03T07:50:20.957Z,44.20
2018-07-03T07:52:49.280Z,44.00
2018-07-03T07:55:17.524Z,44.00
2018-07-03T07:57:45.962Z,43.30
2018-07-03T08:00:15.004Z,43.20
2018-07-03T08:02:43.578Z,43.60
2018-07-03T08:05:12.137Z,43.60
2018-07-03T08:07:40.436Z,43.60
2018-07-03T08:10:08.717Z,43.70
2018-07-03T08:12:37.256Z,43.60
2018-07-03T08:15:06.209Z,43.70
2018-07-03T08:17:34.832Z,43.40
2018-07-03T08:20:03.225Z,43.40
2018-07-03T08:22:31.512Z,43.20
2018-07-03T08:25:00.015Z,43.10
2018-07-03T08:27:28.433Z,43.10
2018-07-03T08:29:56.689Z,41.70
2018-07-03T08:34:53.193Z,43.00
2018-07-03T08:37:21.477Z,43.30
2018-07-03T08:39:49.772Z,43.30
2018-07-03T08:42:18.108Z,43.00
2018-07-03T08:44:46.497Z,42.90
2018-07-03T08:47:14.805Z,43.10
2018-07-03T08:49:43.080Z,43.20
2018-07-03T08:52:11.377Z,42.70
2018-07-03T08:54:40.840Z,42.50
2018-07-03T08:57:09.101Z,42.80
2018-07-03T09:02:05.473Z,42.90
2018-07-03T09:04:33.762Z,42.60
2018-07-03T09:07:02.080Z,42.70
2018-07-03T09:09:30.499Z,42.70
2018-07-03T09:11:58.890Z,42.50
2018-07-03T09:14:27.185Z,42.80
2018-07-03T09:16:55.514Z,42.90
2018-07-03T09:19:24.069Z,42.50
2018-07-03T09:21:52.413Z,42.50
2018-07-03T09:24:20.682Z,42.60
2018-07-03T09:26:48.963Z,41.60
2018-07-03T09:29:17.233Z,42.40
2018-07-03T09:31:46.017Z,38.70
2018-07-03T09:34:14.333Z,41.40
2018-07-03T09:36:42.617Z,41.70
2018-07-03T09:39:11.105Z,42.20
2018-07-03T09:41:40.056Z,41.70
2018-07-03T09:44:08.759Z,40.00
2018-07-03T09:46:37.051Z,39.90
2018-07-03T09:49:06.420Z,41.80
2018-07-03T09:51:34.672Z,42.50
2018-07-03T09:54:03.006Z,40.90
2018-07-03T09:56:32.696Z,41.20
2018-07-03T09:59:01.021Z,41.50
2018-07-03T10:01:29.316Z,41.70
2018-07-03T10:03:57.561Z,41.50
2018-07-03T10:06:26.233Z,41.20
2018-07-03T10:08:54.526Z,41.20
2018-07-03T10:11:22.815Z,41.70
2018-07-03T10:13:51.094Z,41.70
2018-07-03T10:16:19.401Z,41.70
2018-07-03T10:18:48.181Z,41.80
2018-07-03T10:21:16.498Z,41.00
2018-07-03T10:23:44.752Z,41.80
2018-07-03T10:26:13.025Z,41.70
2018-07-03T10:28:41.301Z,41.60
2018-07-03T10:31:09.572Z,40.40
2018-07-03T10:33:37.852Z,41.10
2018-07-03T10:36:06.529Z,41.60
2018-07-03T10:38:34.845Z,41.60
2018-07-03T10:41:03.134Z,41.30
2018-07-03T10:43:31.388Z,40.80
2018-07-03T10:45:59.678Z,40.30
2018-07-03T10:48:28.448Z,40.60
2018-07-03T10:50:56.742Z,40.80
2018-07-03T10:53:25.053Z,41.10
2018-07-03T10:55:53.305Z,39.60
2018-07-03T10:58:21.631Z,41.30
2018-07-03T11:00:49.957Z,41.20
2018-07-03T11:03:18.261Z,41.30
2018-07-03T11:05:46.587Z,41.30
2018-07-03T11:08:14.840Z,41.60
2018-07-03T11:10:43.239Z,41.60
2018-07-03T11:13:11.501Z,41.20
2018-07-03T11:15:39.886Z,41.80
2018-07-03T11:18:08.108Z,41.80
2018-07-03T11:20:36.462Z,42.10
2018-07-03T11:23:04.728Z,42.00
2018-07-03T11:25:32.997Z,42.00
2018-07-03T11:28:01.294Z,42.00
2018-07-03T11:30:29.748Z,42.10
2018-07-03T11:32:58.052Z,42.30
2018-07-03T11:35:26.364Z,42.10
2018-07-03T11:37:54.764Z,42.40
2018-07-03T11:40:23.028Z,42.50
2018-07-03T11:42:51.325Z,42.50
2018-07-03T11:45:19.668Z,42.50
2018-07-03T11:47:47.952Z,42.20
2018-07-03T11:50:16.251Z,42.60
2018-07-03T11:52:44.528Z,42.40
2018-07-03T11:55:12.789Z,42.60
2018-07-03T11:57:41.043Z,42.60
2018-07-03T12:00:09.440Z,42.60
2018-07-03T12:02:37.685Z,42.20
2018-07-03T12:05:06.038Z,42.00
2018-07-03T12:07:34.301Z,41.30
2018-07-03T12:10:02.629Z,40.90
2018-07-03T12:12:30.882Z,40.70
2018-07-03T12:14:59.155Z,41.60
2018-07-03T12:17:27.403Z,41.60
2018-07-03T12:19:55.785Z,42.60
2018-07-03T12:22:23.984Z,42.30
2018-07-03T12:24:52.285Z,42.00
2018-07-03T12:27:20.553Z,42.10
2018-07-03T12:29:48.839Z,42.00
2018-07-03T12:32:17.125Z,42.10
2018-07-03T12:34:45.412Z,42.80
2018-07-03T12:37:13.750Z,42.30
2018-07-03T12:39:42.046Z,41.70
2018-07-03T12:42:10.982Z,42.30
2018-07-03T12:44:39.299Z,42.40
2018-07-03T12:47:07.554Z,42.20
2018-07-03T12:49:35.860Z,42.40
2018-07-03T12:52:04.152Z,42.40
2018-07-03T12:54:32.494Z,42.30
2018-07-03T12:57:00.773Z,42.30
2018-07-03T12:59:29.117Z,41.40
2018-07-03T13:01:57.478Z,39.80
2018-07-03T13:04:25.793Z,39.30
2018-07-03T13:06:54.165Z,41.40
2018-07-03T13:09:22.662Z,41.50
2018-07-03T13:11:51.053Z,41.90
2018-07-03T13:14:19.571Z,39.20
2018-07-03T13:16:48.964Z,39.40
2018-07-03T13:19:17.441Z,39.40
2018-07-03T13:21:45.747Z,41.40
2018-07-03T13:24:14.137Z,41.40
2018-07-03T13:26:42.417Z,41.60
2018-07-03T13:31:38.919Z,39.10
2018-07-03T13:34:07.126Z,37.80
2018-07-03T13:36:35.466Z,40.60
2018-07-03T13:39:05.916Z,39.60
2018-07-03T13:41:34.230Z,40.70
2018-07-03T13:44:02.542Z,41.20
2018-07-03T13:46:30.800Z,39.30
2018-07-03T13:48:59.069Z,39.90
2018-07-03T13:51:27.389Z,40.30
2018-07-03T13:53:55.655Z,40.90
2018-07-03T13:56:23.974Z,40.60
2018-07-03T13:58:52.573Z,39.30
2018-07-03T14:01:21.426Z,40.30
2018-07-03T14:03:49.675Z,40.40
2018-07-03T14:06:18.002Z,39.40
2018-07-03T14:08:46.956Z,39.10
2018-07-03T14:11:15.374Z,38.40
2018-07-03T14:13:43.859Z,40.60
2018-07-03T14:16:12.521Z,41.00
2018-07-03T14:18:40.771Z,40.30
2018-07-03T14:21:09.139Z,39.20
2018-07-03T14:23:37.441Z,40.60
2018-07-03T14:26:05.719Z,37.90
2018-07-03T14:28:34.233Z,40.00
2018-07-03T14:31:02.579Z,40.10
2018-07-03T14:33:30.784Z,39.30
2018-07-03T14:35:59.075Z,40.00
2018-07-03T14:38:27.400Z,40.80
2018-07-03T14:40:55.673Z,39.20
2018-07-03T14:43:23.993Z,41.00
2018-07-03T14:45:52.304Z,40.70
2018-07-03T14:48:20.593Z,39.00
2018-07-03T14:50:48.865Z,39.90
2018-07-03T14:53:17.142Z,40.30
2018-07-03T14:55:45.488Z,40.40
2018-07-03T14:58:13.778Z,40.80
2018-07-03T15:00:42.065Z,38.00
2018-07-03T15:03:10.356Z,39.30
2018-07-03T15:05:38.656Z,40.40
2018-07-03T15:08:06.922Z,38.90
2018-07-03T15:10:35.190Z,39.10
2018-07-03T15:13:04.457Z,40.40
2018-07-03T15:15:32.737Z,40.80
2018-07-03T15:18:00.985Z,40.90
2018-07-03T15:20:29.324Z,41.10
2018-07-03T15:22:58.113Z,41.20
2018-07-03T15:25:26.808Z,41.00
2018-07-03T15:27:55.064Z,40.70
2018-07-03T15:30:23.363Z,41.20
2018-07-03T15:32:51.638Z,40.90
2018-07-03T15:35:19.924Z,41.10
2018-07-03T15:37:48.244Z,41.30
2018-07-03T15:40:16.544Z,40.60
2018-07-03T15:42:44.849Z,39.10
2018-07-03T15:45:14.576Z,40.80
2018-07-03T15:47:42.857Z,39.10
2018-07-03T15:50:12.478Z,40.80
2018-07-03T15:52:40.819Z,40.00
2018-07-03T15:55:10.038Z,38.70
2018-07-03T15:57:38.325Z,38.40
2018-07-03T16:02:35.852Z,41.00
2018-07-03T16:05:17.718Z,37.90
2018-07-03T16:07:57.550Z,40.20
2018-07-03T16:10:26.663Z,39.30
2018-07-03T16:12:55.229Z,39.30
2018-07-03T16:15:23.621Z,37.50
2018-07-03T16:17:52.060Z,40.60
2018-07-03T16:20:25.691Z,40.70
2018-07-03T16:22:53.989Z,40.70
2018-07-03T16:25:22.362Z,36.30
2018-07-03T16:27:50.607Z,41.30
2018-07-03T16:30:18.884Z,38.80
2018-07-03T16:32:47.134Z,38.80
2018-07-03T16:35:15.408Z,41.00
2018-07-03T16:37:43.673Z,39.70
2018-07-03T16:40:11.946Z,36.90
2018-07-03T16:42:40.258Z,37.30
2018-07-03T16:45:08.562Z,36.80
2018-07-03T16:47:36.890Z,36.10
2018-07-03T16:50:05.237Z,36.00
2018-07-03T16:52:33.511Z,35.70
2018-07-03T16:55:01.773Z,35.50
2018-07-03T16:57:30.078Z,35.70
2018-07-03T16:59:58.429Z,35.30
2018-07-03T17:02:26.688Z,35.60
2018-07-03T17:04:54.942Z,34.10
2018-07-03T17:07:23.258Z,35.40
2018-07-03T17:09:51.528Z,35.60
2018-07-03T17:12:19.753Z,34.80
2018-07-03T17:14:48.071Z,35.80
2018-07-03T17:17:16.381Z,35.90
2018-07-03T17:19:44.694Z,35.90
2018-07-03T17:22:13.217Z,35.90
2018-07-03T17:24:41.482Z,36.00
2018-07-03T17:27:09.736Z,35.90
2018-07-03T17:29:38.006Z,34.60
2018-07-03T17:32:06.341Z,36.30
2018-07-03T17:34:34.866Z,36.40
2018-07-03T17:37:03.101Z,36.40
2018-07-03T17:39:42.749Z,36.50
2018-07-03T17:42:22.287Z,36.60
2018-07-03T17:46:00.577Z,36.60
2018-07-03T17:48:28.878Z,36.20
2018-07-03T17:50:57.180Z,37.00
2018-07-03T17:53:25.476Z,37.00
2018-07-03T17:55:54.025Z,37.20
2018-07-03T17:58:22.314Z,37.00
2018-07-03T18:00:50.681Z,37.60
2018-07-03T18:03:18.973Z,37.50
2018-07-03T18:08:15.340Z,37.50
2018-07-03T18:10:43.644Z,38.10
2018-07-03T18:13:11.919Z,38.10
2018-07-03T18:15:40.245Z,37.30
2018-07-03T18:18:08.591Z,38.40
2018-07-03T18:20:36.930Z,38.40
2018-07-03T18:23:05.276Z,38.70
2018-07-03T18:25:33.632Z,38.20
2018-07-03T18:28:02.084Z,38.90
2018-07-03T18:30:31.230Z,38.80
2018-07-03T18:32:59.678Z,38.70
2018-07-03T18:35:27.940Z,38.80
2018-07-03T18:37:56.213Z,39.50
2018-07-03T18:40:24.562Z,39.00
2018-07-03T18:42:52.846Z,39.00
2018-07-03T18:45:21.077Z,39.00
2018-07-03T18:47:49.404Z,38.40
2018-07-03T18:50:17.734Z,39.20
2018-07-03T18:55:14.138Z,39.00
2018-07-03T18:57:42.425Z,40.00
2018-07-03T19:00:10.683Z,39.40
2018-07-03T19:02:38.997Z,39.50
2018-07-03T19:05:07.377Z,40.10
2018-07-03T19:07:35.680Z,39.60
2018-07-03T19:10:04.029Z,39.60
2018-07-03T19:12:32.269Z,39.70
2018-07-03T19:15:00.548Z,40.30
2018-07-03T19:17:28.845Z,39.90
2018-07-03T19:19:57.149Z,39.90
2018-07-03T19:22:25.414Z,40.00
2018-07-03T19:24:53.729Z,40.00
2018-07-03T19:27:21.985Z,40.10
2018-07-03T19:29:50.233Z,40.20
2018-07-03T19:32:18.480Z,40.30
2018-07-03T19:34:46.769Z,40.30
2018-07-03T19:37:15.026Z,40.40
2018-07-03T19:39:43.374Z,40.50
2018-07-03T19:42:11.675Z,40.50
2018-07-03T19:44:39.881Z,40.60
2018-07-03T19:47:08.261Z,40.60
2018-07-03T19:49:36.539Z,40.60
2018-07-03T19:52:04.870Z,41.30
2018-07-03T19:54:33.163Z,40.60
2018-07-03T19:57:01.450Z,40.80
2018-07-03T19:59:29.786Z,40.90
2018-07-03T20:01:58.162Z,40.90
2018-07-03T20:04:26.459Z,41.00
2018-07-03T20:06:54.871Z,41.00
2018-07-03T20:09:23.110Z,41.10
2018-07-03T20:11:51.428Z,41.10
2018-07-03T20:14:19.696Z,41.10
2018-07-03T20:16:47.985Z,41.20
2018-07-03T20:19:16.661Z,41.30
2018-07-03T20:21:46.207Z,41.70
2018-07-03T20:24:15.441Z,41.40
2018-07-03T20:26:43.754Z,41.30
2018-07-03T20:29:12.808Z,41.50
2018-07-03T20:31:41.134Z,41.50
2018-07-03T20:34:09.443Z,41.60
2018-07-03T20:39:07.975Z,41.70
2018-07-03T20:41:36.349Z,41.70
2018-07-03T20:44:04.733Z,41.70
2018-07-03T20:46:33.025Z,41.80
2018-07-03T20:49:01.380Z,41.80
2018-07-03T20:51:29.635Z,41.90
2018-07-03T20:53:57.886Z,41.90
2018-07-03T20:56:26.150Z,42.00
2018-07-03T20:58:54.405Z,42.00
2018-07-03T21:01:22.665Z,42.00
2018-07-03T21:03:50.958Z,42.10
2018-07-03T21:06:19.399Z,42.00
2018-07-03T21:08:47.578Z,42.10
2018-07-03T21:11:15.838Z,42.20
2018-07-03T21:13:44.144Z,42.20
2018-07-03T21:16:12.448Z,42.20
2018-07-03T21:18:40.717Z,42.20
2018-07-03T21:21:08.983Z,42.20
2018-07-03T21:23:37.235Z,42.30
2018-07-03T21:26:05.842Z,42.30
2018-07-03T21:28:34.099Z,42.30
2018-07-03T21:31:02.400Z,42.90
2018-07-03T21:33:30.671Z,42.40
2018-07-03T21:35:58.960Z,42.30
2018-07-03T21:38:27.309Z,42.40
2018-07-03T21:40:55.600Z,42.40
2018-07-03T21:43:23.885Z,42.40
2018-07-03T21:45:52.222Z,42.40
2018-07-03T21:48:20.529Z,42.50
2018-07-03T21:50:48.948Z,42.40
2018-07-03T21:55:45.644Z,42.40
2018-07-03T21:58:13.971Z,42.50
2018-07-03T22:00:42.497Z,42.50
2018-07-03T22:03:11.775Z,42.50
2018-07-03T22:05:40.660Z,42.50
2018-07-03T22:08:09.033Z,42.50
2018-07-03T22:10:37.361Z,42.50
2018-07-03T22:13:05.646Z,42.50
2018-07-03T22:15:33.945Z,42.60
2018-07-03T22:18:02.447Z,42.60
2018-07-03T22:20:30.701Z,42.60
2018-07-03T22:22:59.123Z,42.70
2018-07-03T22:25:27.430Z,42.70
2018-07-03T22:27:55.709Z,42.60
2018-07-03T22:30:24.097Z,42.70
2018-07-03T22:32:52.593Z,42.60
2018-07-03T22:35:20.894Z,42.70
2018-07-03T22:37:49.157Z,42.70
2018-07-03T22:40:17.461Z,42.80
2018-07-03T22:42:45.805Z,42.80
2018-07-03T22:45:14.219Z,42.90
2018-07-03T22:47:42.470Z,43.00
2018-07-03T22:50:10.881Z,43.00
2018-07-03T22:52:39.182Z,43.10
2018-07-03T22:55:07.471Z,43.10
2018-07-03T22:57:35.816Z,43.10
2018-07-03T23:00:04.225Z,43.10
2018-07-03T23:02:32.527Z,43.20
2018-07-03T23:05:00.805Z,43.20
2018-07-03T23:07:29.081Z,43.20
2018-07-03T23:09:57.358Z,43.30
2018-07-03T23:12:25.708Z,43.30
2018-07-03T23:14:53.969Z,43.30
2018-07-03T23:17:22.435Z,43.40
2018-07-03T23:19:50.693Z,43.40
2018-07-03T23:22:19.098Z,43.50
2018-07-03T23:24:47.370Z,43.40
2018-07-03T23:27:15.752Z,43.40
2018-07-03T23:29:44.039Z,43.40
2018-07-03T23:32:12.750Z,43.50
2018-07-03T23:34:41.783Z,43.70
2018-07-03T23:37:10.465Z,43.60
2018-07-03T23:39:38.826Z,43.60
2018-07-03T23:42:07.118Z,43.60
2018-07-03T23:44:35.429Z,43.60
2018-07-03T23:47:14.969Z,43.70
2018-07-03T23:49:54.695Z,43.70
2018-07-03T23:52:34.406Z,43.80
2018-07-03T23:55:14.018Z,43.80
2018-07-03T23:57:53.570Z,43.80
